createdAt,value
2022-09-22T00:02:20.722Z,1.95
2022-09-22T00:04:48.461Z,1.77
2022-09-22T00:07:16.244Z,1.90
2022-09-22T00:09:43.988Z,1.90
2022-09-22T00:12:11.779Z,1.95
2022-09-22T00:14:39.468Z,2.17
2022-09-22T00:17:07.165Z,2.00
2022-09-22T00:19:34.834Z,2.13
2022-09-22T00:22:02.582Z,1.73
2022-09-22T00:24:31.196Z,2.13
2022-09-22T00:26:59.148Z,2.20
2022-09-22T00:29:26.834Z,2.20
2022-09-22T00:31:54.602Z,1.95
2022-09-22T00:34:22.424Z,1.70
2022-09-22T00:36:50.117Z,2.10
2022-09-22T00:39:17.824Z,1.80
2022-09-22T00:41:45.657Z,1.90
2022-09-22T00:44:13.454Z,1.80
2022-09-22T00:46:42.367Z,1.70
2022-09-22T00:49:10.094Z,2.00
2022-09-22T00:51:37.800Z,2.63
2022-09-22T00:54:05.670Z,2.20
2022-09-22T00:56:39.184Z,2.10
2022-09-22T00:59:07.105Z,2.10
2022-09-22T01:01:36.957Z,1.98
2022-09-22T01:04:04.930Z,1.83
2022-09-22T01:06:32.648Z,2.00
2022-09-22T01:09:00.591Z,2.10
2022-09-22T01:11:29.751Z,2.10
2022-09-22T01:13:57.463Z,2.15
2022-09-22T01:16:25.236Z,2.38
2022-09-22T01:18:53.515Z,1.92
2022-09-22T01:21:21.248Z,1.90
2022-09-22T01:23:48.915Z,1.80
2022-09-22T01:26:16.712Z,2.08
2022-09-22T01:28:44.380Z,1.70
2022-09-22T01:31:12.120Z,1.90
2022-09-22T01:33:40.115Z,1.70
2022-09-22T01:36:07.843Z,1.80
2022-09-22T01:38:35.696Z,2.10
2022-09-22T01:41:03.451Z,2.00
2022-09-22T01:43:31.127Z,2.30
2022-09-22T01:45:58.906Z,2.13
2022-09-22T01:48:26.642Z,1.90
2022-09-22T01:50:54.339Z,2.03
2022-09-22T01:53:22.127Z,2.15
2022-09-22T01:55:49.812Z,1.90
2022-09-22T01:58:18.006Z,2.20
2022-09-22T02:00:45.824Z,1.95
2022-09-22T02:03:13.838Z,2.20
2022-09-22T02:05:41.749Z,1.98
2022-09-22T02:08:10.043Z,1.75
2022-09-22T02:10:37.927Z,2.38
2022-09-22T02:13:05.663Z,2.30
2022-09-22T02:15:53.534Z,1.85
2022-09-22T02:18:21.312Z,2.03
2022-09-22T02:20:49.079Z,1.52
2022-09-22T02:23:16.794Z,1.80
2022-09-22T02:25:44.707Z,1.90
2022-09-22T02:28:12.420Z,1.83
2022-09-22T02:30:40.318Z,2.17
2022-09-22T02:33:08.107Z,2.45
2022-09-22T02:35:36.072Z,1.80
2022-09-22T02:38:03.801Z,1.92
2022-09-22T02:40:31.669Z,1.80
2022-09-22T02:42:59.578Z,1.70
2022-09-22T02:45:27.271Z,1.95
2022-09-22T02:47:57.166Z,1.92
2022-09-22T02:50:24.982Z,1.90
2022-09-22T02:52:52.897Z,2.00
2022-09-22T02:55:20.651Z,2.00
2022-09-22T02:57:48.726Z,1.80
2022-09-22T03:00:16.962Z,1.90
2022-09-22T03:02:44.684Z,2.17
2022-09-22T03:05:12.446Z,2.30
2022-09-22T03:07:40.218Z,2.00
2022-09-22T03:10:08.059Z,2.28
2022-09-22T03:12:35.790Z,1.90
2022-09-22T03:15:03.493Z,2.00
2022-09-22T03:17:32.961Z,1.70
2022-09-22T03:20:00.749Z,2.08
2022-09-22T03:22:28.479Z,2.08
2022-09-22T03:24:56.165Z,1.90
2022-09-22T03:27:24.068Z,1.85
2022-09-22T03:29:51.805Z,2.15
2022-09-22T03:32:19.537Z,1.83
2022-09-22T03:34:47.411Z,2.28
2022-09-22T03:37:15.216Z,1.77
2022-09-22T03:39:42.921Z,1.77
2022-09-22T03:42:10.641Z,2.20
2022-09-22T03:44:38.307Z,1.70
2022-09-22T03:47:06.038Z,1.90
2022-09-22T03:49:33.790Z,1.85
2022-09-22T03:52:01.508Z,2.05
2022-09-22T03:54:29.175Z,1.92
2022-09-22T03:56:56.900Z,1.90
2022-09-22T03:59:24.575Z,1.80
2022-09-22T04:01:59.689Z,2.30
2022-09-22T04:04:27.417Z,2.20
2022-09-22T04:06:55.098Z,1.90
2022-09-22T04:09:22.908Z,1.75
2022-09-22T04:11:50.692Z,1.98
2022-09-22T04:14:18.386Z,2.25
2022-09-22T04:16:46.287Z,2.47
2022-09-22T04:19:14.040Z,2.13
2022-09-22T04:21:42.099Z,3.58
2022-09-22T04:24:11.639Z,3.90
2022-09-22T04:26:47.776Z,3.20
2022-09-22T04:29:27.083Z,2.22
2022-09-22T04:31:54.780Z,2.45
2022-09-22T04:34:22.608Z,3.75
2022-09-22T04:36:50.350Z,3.28
2022-09-22T04:39:22.971Z,2.25
2022-09-22T04:41:51.469Z,2.78
2022-09-22T04:44:19.168Z,3.47
2022-09-22T04:46:47.169Z,2.30
2022-09-22T04:49:14.849Z,2.88
2022-09-22T04:51:42.629Z,3.45
2022-09-22T04:54:10.441Z,6.13
2022-09-22T04:56:38.127Z,2.70
2022-09-22T04:59:05.864Z,2.33
2022-09-22T05:01:33.659Z,5.22
2022-09-22T05:04:01.425Z,2.22
2022-09-22T05:06:29.153Z,2.47
2022-09-22T05:08:56.901Z,2.55
2022-09-22T05:11:24.696Z,2.22
2022-09-22T05:13:52.437Z,3.58
2022-09-22T05:16:20.167Z,2.30
2022-09-22T05:18:50.290Z,2.90
2022-09-22T05:21:18.816Z,2.45
2022-09-22T05:23:46.596Z,2.20
2022-09-22T05:26:14.277Z,2.25
2022-09-22T05:28:41.994Z,2.03
2022-09-22T05:31:09.815Z,2.50
2022-09-22T05:34:04.641Z,2.20
2022-09-22T05:36:32.475Z,2.17
2022-09-22T05:39:00.363Z,2.90
2022-09-22T05:41:28.163Z,3.08
2022-09-22T05:43:55.927Z,1.95
2022-09-22T05:46:23.588Z,2.38
2022-09-22T05:48:51.301Z,2.72
2022-09-22T05:51:19.102Z,3.42
2022-09-22T05:53:46.903Z,4.30
2022-09-22T05:56:16.674Z,2.22
2022-09-22T05:58:44.529Z,3.28
2022-09-22T06:01:12.697Z,2.33
2022-09-22T06:03:40.880Z,3.10
2022-09-22T06:06:08.736Z,1.83
2022-09-22T06:08:36.574Z,3.38
2022-09-22T06:11:04.381Z,2.20
2022-09-22T06:13:32.208Z,2.45
2022-09-22T06:16:00.114Z,3.78
2022-09-22T06:18:28.002Z,2.15
2022-09-22T06:20:56.204Z,1.90
2022-09-22T06:23:24.223Z,2.88
2022-09-22T06:25:52.043Z,2.30
2022-09-22T06:28:19.870Z,2.47
2022-09-22T06:30:52.061Z,2.00
2022-09-22T06:33:19.935Z,2.28
2022-09-22T06:35:47.757Z,1.90
2022-09-22T06:38:15.968Z,2.85
2022-09-22T06:40:43.934Z,2.47
2022-09-22T06:43:12.944Z,2.30
2022-09-22T06:45:41.553Z,2.00
2022-09-22T06:48:10.529Z,3.45
2022-09-22T06:50:38.885Z,2.08
2022-09-22T06:53:07.304Z,3.30
2022-09-22T06:55:35.216Z,2.05
2022-09-22T06:58:03.232Z,2.20
2022-09-22T07:00:32.913Z,1.73
2022-09-22T07:03:01.053Z,2.00
2022-09-22T07:05:29.138Z,3.30
2022-09-22T07:07:56.969Z,2.80
2022-09-22T07:10:24.845Z,2.17
2022-09-22T07:12:52.670Z,1.95
2022-09-22T07:15:20.590Z,2.00
2022-09-22T07:17:48.803Z,2.10
2022-09-22T07:20:17.950Z,2.28
2022-09-22T07:22:45.945Z,2.30
2022-09-22T07:25:13.762Z,2.30
2022-09-22T07:27:41.617Z,1.70
2022-09-22T07:30:10.326Z,2.40
2022-09-22T07:32:38.180Z,2.05
2022-09-22T07:35:06.021Z,2.00
2022-09-22T07:40:28.402Z,1.70
2022-09-22T07:42:56.285Z,2.17
2022-09-22T07:45:24.067Z,2.00
2022-09-22T07:48:09.301Z,1.90
2022-09-22T07:50:37.147Z,2.70
2022-09-22T07:53:05.361Z,2.10
2022-09-22T07:55:33.386Z,2.00
2022-09-22T07:58:01.177Z,1.88
2022-09-22T08:00:29.400Z,3.40
2022-09-22T08:02:57.966Z,1.98
2022-09-22T08:05:25.785Z,1.80
2022-09-22T08:07:57.276Z,2.13
2022-09-22T08:10:25.035Z,1.95
2022-09-22T08:12:52.982Z,1.70
2022-09-22T08:15:26.901Z,2.58
2022-09-22T08:17:55.534Z,2.00
2022-09-22T08:20:23.378Z,1.88
2022-09-22T08:22:51.251Z,2.03
2022-09-22T08:25:19.026Z,1.80
2022-09-22T08:27:46.794Z,1.90
2022-09-22T08:30:14.563Z,1.90
2022-09-22T08:32:42.424Z,1.95
2022-09-22T08:35:10.244Z,2.33
2022-09-22T08:37:38.252Z,1.85
2022-09-22T08:40:06.213Z,2.08
2022-09-22T08:42:34.251Z,1.90
2022-09-22T08:45:02.094Z,4.18
2022-09-22T08:47:43.706Z,1.80
2022-09-22T08:50:28.942Z,1.70
2022-09-22T08:52:56.902Z,1.73
2022-09-22T08:55:24.620Z,2.00
2022-09-22T08:57:57.072Z,1.90
2022-09-22T09:00:24.886Z,1.80
2022-09-22T09:02:53.083Z,1.77
2022-09-22T09:05:20.912Z,1.80
2022-09-22T09:07:48.711Z,2.25
2022-09-22T09:10:16.534Z,1.67
2022-09-22T09:12:44.353Z,1.60
2022-09-22T09:15:12.208Z,1.70
2022-09-22T09:17:40.076Z,1.70
2022-09-22T09:20:07.961Z,1.70
2022-09-22T09:22:36.197Z,1.70
2022-09-22T09:27:52.129Z,1.95
2022-09-22T09:30:19.921Z,1.60
2022-09-22T09:32:48.376Z,1.50
2022-09-22T09:35:16.172Z,1.48
2022-09-22T09:37:44.174Z,1.70
2022-09-22T09:40:13.192Z,1.60
2022-09-22T09:42:41.006Z,1.60
2022-09-22T09:45:08.800Z,1.60
2022-09-22T09:47:37.039Z,1.60
2022-09-22T09:50:04.828Z,1.55
2022-09-22T09:52:32.810Z,1.50
2022-09-22T09:55:00.630Z,1.65
2022-09-22T09:57:29.755Z,1.50
2022-09-22T10:00:14.962Z,1.60
2022-09-22T10:02:42.906Z,2.50
2022-09-22T10:05:12.203Z,1.70
2022-09-22T10:07:40.197Z,1.45
2022-09-22T10:10:08.074Z,1.80
2022-09-22T10:12:36.000Z,1.73
2022-09-22T10:15:03.862Z,1.42
2022-09-22T10:17:35.167Z,1.67
2022-09-22T10:20:03.058Z,1.50
2022-09-22T10:22:31.131Z,1.52
2022-09-22T10:24:59.062Z,1.77
2022-09-22T10:27:26.965Z,1.42
2022-09-22T10:29:57.314Z,1.50
2022-09-22T10:32:25.067Z,1.63
2022-09-22T10:34:57.167Z,1.20
2022-09-22T10:37:26.251Z,1.50
2022-09-22T10:39:54.148Z,1.33
2022-09-22T10:42:22.808Z,1.50
2022-09-22T10:44:50.629Z,1.67
2022-09-22T10:47:20.703Z,1.30
2022-09-22T10:49:51.208Z,2.10
2022-09-22T10:52:19.478Z,1.23
2022-09-22T10:54:47.326Z,1.33
2022-09-22T10:57:15.096Z,1.50
2022-09-22T10:59:43.064Z,1.52
2022-09-22T11:02:11.330Z,1.50
2022-09-22T11:04:39.373Z,1.40
2022-09-22T11:07:24.771Z,1.50
2022-09-22T11:10:10.274Z,1.55
2022-09-22T11:12:38.129Z,2.10
2022-09-22T11:15:05.994Z,1.23
2022-09-22T11:17:33.848Z,1.20
2022-09-22T11:20:01.625Z,1.10
2022-09-22T11:22:29.398Z,1.67
2022-09-22T11:24:57.255Z,1.13
2022-09-22T11:27:25.091Z,1.20
2022-09-22T11:29:52.866Z,1.35
2022-09-22T11:32:20.661Z,1.33
2022-09-22T11:34:48.282Z,1.42
2022-09-22T11:37:26.638Z,1.30
2022-09-22T11:39:54.351Z,1.30
2022-09-22T11:42:22.137Z,1.40
2022-09-22T11:44:49.822Z,1.35
2022-09-22T11:47:17.505Z,1.40
2022-09-22T11:49:45.265Z,1.25
2022-09-22T11:52:17.286Z,1.42
2022-09-22T11:54:46.110Z,1.40
2022-09-22T11:57:13.751Z,1.30
2022-09-22T11:59:41.514Z,1.40
2022-09-22T12:05:30.178Z,1.33
2022-09-22T12:07:59.253Z,1.30
2022-09-22T12:10:27.031Z,1.85
2022-09-22T12:12:56.831Z,1.40
2022-09-22T12:15:24.576Z,1.25
2022-09-22T12:17:56.410Z,1.30
2022-09-22T12:20:25.501Z,1.30
2022-09-22T12:22:53.201Z,1.50
2022-09-22T12:25:37.606Z,1.30
2022-09-22T12:28:08.873Z,1.20
2022-09-22T12:30:46.050Z,1.10
2022-09-22T12:33:13.886Z,1.50
2022-09-22T12:35:43.616Z,1.20
2022-09-22T12:38:13.511Z,1.00
2022-09-22T12:40:42.362Z,1.25
2022-09-22T12:43:10.089Z,1.20
2022-09-22T12:45:37.873Z,1.30
2022-09-22T12:48:07.159Z,1.27
2022-09-22T12:50:37.576Z,1.35
2022-09-22T12:53:05.244Z,1.20
2022-09-22T12:55:38.571Z,1.10
2022-09-22T12:58:06.355Z,1.30
2022-09-22T13:00:34.073Z,1.52
2022-09-22T13:03:01.777Z,1.20
2022-09-22T13:05:29.511Z,2.17
2022-09-22T13:07:57.197Z,1.10
2022-09-22T13:10:25.011Z,1.00
2022-09-22T13:12:52.846Z,1.00
2022-09-22T13:15:20.898Z,1.30
2022-09-22T13:17:49.502Z,1.10
2022-09-22T13:20:17.257Z,1.30
2022-09-22T13:22:45.065Z,1.50
2022-09-22T13:25:12.944Z,1.00
2022-09-22T13:27:40.857Z,1.13
2022-09-22T13:30:08.712Z,1.10
2022-09-22T13:32:36.903Z,1.30
2022-09-22T13:35:04.791Z,1.00
2022-09-22T13:37:32.624Z,1.05
2022-09-22T13:40:00.415Z,1.15
2022-09-22T13:42:32.709Z,1.00
2022-09-22T13:45:00.614Z,1.20
2022-09-22T13:47:28.396Z,1.30
2022-09-22T13:49:56.269Z,1.30
2022-09-22T13:52:24.786Z,1.10
2022-09-22T13:54:52.617Z,1.10
2022-09-22T13:57:20.439Z,1.00
2022-09-22T13:59:48.424Z,0.90
2022-09-22T14:02:16.379Z,0.82
2022-09-22T14:04:44.251Z,0.93
2022-09-22T14:07:12.037Z,1.00
2022-09-22T14:09:40.017Z,0.80
2022-09-22T14:12:07.769Z,0.90
2022-09-22T14:14:35.890Z,0.80
2022-09-22T14:17:03.918Z,0.90
2022-09-22T14:19:34.442Z,0.90
2022-09-22T14:22:02.904Z,0.90
2022-09-22T14:24:30.689Z,0.80
2022-09-22T14:27:03.518Z,1.00
2022-09-22T14:29:32.191Z,0.70
2022-09-22T14:32:00.502Z,0.80
2022-09-22T14:34:29.846Z,0.90
2022-09-22T14:36:57.896Z,0.70
2022-09-22T14:39:31.249Z,0.75
2022-09-22T14:41:59.725Z,0.77
2022-09-22T14:44:28.251Z,0.80
2022-09-22T14:46:56.120Z,0.90
2022-09-22T14:49:24.261Z,0.68
2022-09-22T14:51:52.118Z,1.15
2022-09-22T14:54:23.260Z,0.88
2022-09-22T14:56:51.730Z,0.90
2022-09-22T14:59:37.105Z,1.05
2022-09-22T15:02:22.566Z,0.70
2022-09-22T15:04:50.374Z,0.90
2022-09-22T15:07:20.455Z,0.80
2022-09-22T15:09:48.425Z,1.02
2022-09-22T15:12:16.219Z,0.52
2022-09-22T15:14:44.283Z,0.70
2022-09-22T15:17:25.884Z,0.85
2022-09-22T15:19:57.208Z,0.77
2022-09-22T15:22:27.152Z,1.05
2022-09-22T15:24:54.969Z,0.88
2022-09-22T15:27:22.980Z,0.80
2022-09-22T15:29:52.096Z,0.98
2022-09-22T15:32:20.016Z,0.80
2022-09-22T15:34:47.975Z,0.88
2022-09-22T15:37:15.945Z,0.85
2022-09-22T15:39:43.692Z,0.77
2022-09-22T15:42:12.402Z,0.70
2022-09-22T15:44:40.830Z,0.90
2022-09-22T15:47:08.850Z,1.20
2022-09-22T15:49:36.713Z,0.90
2022-09-22T15:52:04.959Z,0.80
2022-09-22T15:54:44.130Z,0.70
2022-09-22T15:57:15.008Z,1.42
2022-09-22T15:59:44.048Z,1.55
2022-09-22T16:02:11.974Z,1.27
2022-09-22T16:04:39.949Z,1.20
2022-09-22T16:07:08.522Z,0.80
2022-09-22T16:09:36.430Z,1.80
2022-09-22T16:12:07.826Z,3.78
2022-09-22T16:14:36.860Z,1.05
2022-09-22T16:17:05.586Z,2.08
2022-09-22T16:19:33.537Z,0.82
2022-09-22T16:22:01.382Z,1.67
2022-09-22T16:24:29.232Z,1.25
2022-09-22T16:26:57.226Z,1.10
2022-09-22T16:29:27.147Z,0.82
2022-09-22T16:31:55.112Z,0.95
2022-09-22T16:34:23.969Z,0.90
2022-09-22T16:36:52.446Z,0.98
2022-09-22T16:39:20.398Z,2.33
2022-09-22T16:41:49.047Z,0.93
2022-09-22T16:44:17.052Z,1.92
2022-09-22T16:46:45.157Z,2.63
2022-09-22T16:49:13.904Z,1.00
2022-09-22T16:52:01.671Z,2.10
2022-09-22T16:54:32.373Z,0.95
2022-09-22T16:57:00.430Z,2.08
2022-09-22T16:59:28.855Z,1.00
2022-09-22T17:01:59.895Z,0.90
2022-09-22T17:04:27.721Z,1.33
2022-09-22T17:06:56.176Z,1.15
2022-09-22T17:09:24.141Z,0.90
2022-09-22T17:11:53.784Z,1.55
2022-09-22T17:14:22.367Z,1.58
2022-09-22T17:16:52.236Z,1.00
2022-09-22T17:19:20.456Z,0.88
2022-09-22T17:21:48.617Z,0.93
2022-09-22T17:24:16.925Z,0.98
2022-09-22T17:26:47.144Z,1.13
2022-09-22T17:29:16.048Z,1.08
2022-09-22T17:31:44.228Z,0.95
2022-09-22T17:34:13.333Z,2.35
2022-09-22T17:39:15.012Z,1.30
2022-09-22T17:41:47.086Z,1.67
2022-09-22T17:44:18.944Z,1.75
2022-09-22T17:47:00.522Z,1.00
2022-09-22T17:49:45.979Z,1.10
2022-09-22T17:52:31.368Z,1.13
2022-09-22T17:55:08.413Z,1.02
2022-09-22T17:57:36.120Z,1.20
2022-09-22T18:00:04.033Z,0.80
2022-09-22T18:02:32.327Z,0.70
2022-09-22T18:05:00.137Z,0.80
2022-09-22T18:07:27.988Z,0.80
2022-09-22T18:09:56.167Z,0.88
2022-09-22T18:12:24.741Z,0.82
2022-09-22T18:14:52.511Z,1.90
2022-09-22T18:17:20.492Z,0.80
2022-09-22T18:19:48.443Z,0.90
2022-09-22T18:22:17.153Z,0.63
2022-09-22T18:24:45.274Z,2.83
2022-09-22T18:27:13.449Z,3.10
2022-09-22T18:29:41.313Z,1.10
2022-09-22T18:32:09.077Z,0.80
2022-09-22T18:34:38.815Z,0.90
2022-09-22T18:37:06.677Z,1.00
2022-09-22T18:39:35.286Z,0.85
2022-09-22T18:42:03.096Z,1.25
2022-09-22T18:44:30.804Z,1.10
2022-09-22T18:47:01.245Z,1.88
2022-09-22T18:49:32.044Z,0.70
2022-09-22T18:52:00.371Z,0.80
2022-09-22T18:54:30.122Z,0.90
2022-09-22T18:56:57.796Z,1.42
2022-09-22T18:59:25.466Z,0.80
2022-09-22T19:01:53.387Z,0.90
2022-09-22T19:04:21.291Z,0.98
2022-09-22T19:07:06.502Z,1.00
2022-09-22T19:09:34.469Z,1.00
2022-09-22T19:12:02.597Z,1.13
2022-09-22T19:14:36.447Z,1.00
2022-09-22T19:17:04.404Z,1.02
2022-09-22T19:19:32.164Z,0.80
2022-09-22T19:22:00.109Z,1.20
2022-09-22T19:24:27.840Z,1.17
2022-09-22T19:26:56.347Z,0.95
2022-09-22T19:29:24.134Z,1.15
2022-09-22T19:31:55.710Z,1.20
2022-09-22T19:34:23.703Z,1.65
2022-09-22T19:36:51.493Z,1.10
2022-09-22T19:39:19.338Z,0.98
2022-09-22T19:41:48.447Z,1.08
2022-09-22T19:44:17.164Z,1.00
2022-09-22T19:46:45.502Z,1.10
2022-09-22T19:49:13.320Z,0.98
2022-09-22T19:51:42.476Z,1.10
2022-09-22T19:54:10.220Z,1.30
2022-09-22T19:56:37.937Z,1.20
2022-09-22T19:59:07.250Z,1.70
2022-09-22T20:01:35.506Z,1.58
2022-09-22T20:04:03.315Z,1.15
2022-09-22T20:06:31.090Z,2.15
2022-09-22T20:09:02.850Z,1.33
2022-09-22T20:11:30.749Z,1.58
2022-09-22T20:14:15.913Z,2.65
2022-09-22T20:16:46.021Z,1.90
2022-09-22T20:19:14.419Z,1.67
2022-09-22T20:21:42.158Z,1.70
2022-09-22T20:24:10.025Z,1.60
2022-09-22T20:26:37.763Z,1.50
2022-09-22T20:29:05.526Z,1.50
2022-09-22T20:31:33.329Z,1.60
2022-09-22T20:34:01.141Z,1.70
2022-09-22T20:36:29.021Z,3.35
2022-09-22T20:38:56.777Z,1.38
2022-09-22T20:41:24.531Z,1.80
2022-09-22T20:43:52.269Z,1.70
2022-09-22T20:46:20.129Z,1.80
2022-09-22T20:48:48.169Z,1.92
2022-09-22T20:51:15.935Z,1.60
2022-09-22T20:53:43.738Z,1.80
2022-09-22T20:56:11.541Z,1.83
2022-09-22T20:58:39.295Z,1.60
2022-09-22T21:01:07.190Z,1.88
2022-09-22T21:03:35.368Z,1.55
2022-09-22T21:06:03.307Z,1.92
2022-09-22T21:08:48.775Z,1.70
2022-09-22T21:11:16.533Z,1.73
2022-09-22T21:13:44.333Z,1.88
2022-09-22T21:16:13.882Z,1.95
2022-09-22T21:18:43.225Z,2.58
2022-09-22T21:21:10.995Z,1.98
2022-09-22T21:23:38.901Z,2.08
2022-09-22T21:26:07.091Z,2.05
2022-09-22T21:28:35.002Z,2.15
2022-09-22T21:31:02.794Z,2.58
2022-09-22T21:33:30.817Z,2.00
2022-09-22T21:35:58.622Z,2.30
2022-09-22T21:38:26.350Z,2.08
2022-09-22T21:40:54.212Z,2.20
2022-09-22T21:43:22.023Z,2.30
2022-09-22T21:45:51.098Z,1.80
2022-09-22T21:48:19.097Z,1.80
2022-09-22T21:50:47.009Z,2.15
2022-09-22T21:53:15.334Z,1.95
2022-09-22T21:55:43.025Z,1.90
2022-09-22T21:58:12.805Z,1.92
2022-09-22T22:00:51.649Z,1.80
2022-09-22T22:03:32.100Z,2.05
2022-09-22T22:05:59.835Z,2.28
2022-09-22T22:08:27.508Z,2.10
2022-09-22T22:10:55.209Z,2.33
2022-09-22T22:13:22.974Z,2.00
2022-09-22T22:15:51.100Z,2.35
2022-09-22T22:18:18.883Z,2.30
2022-09-22T22:20:47.113Z,1.90
2022-09-22T22:23:14.808Z,1.90
2022-09-22T22:25:43.985Z,2.17
2022-09-22T22:28:11.701Z,1.92
2022-09-22T22:30:39.508Z,2.20
2022-09-22T22:33:08.132Z,2.30
2022-09-22T22:35:35.931Z,2.25
2022-09-22T22:38:03.903Z,2.13
2022-09-22T22:40:32.207Z,2.10
2022-09-22T22:42:59.954Z,2.20
2022-09-22T22:45:27.685Z,2.15
2022-09-22T22:47:55.402Z,2.10
2022-09-22T22:50:23.100Z,2.20
2022-09-22T22:52:50.833Z,2.40
2022-09-22T22:55:18.541Z,2.67
2022-09-22T22:57:46.221Z,2.13
2022-09-22T23:00:14.134Z,2.30
2022-09-22T23:02:41.803Z,2.17
2022-09-22T23:05:09.597Z,1.90
2022-09-22T23:07:38.360Z,2.10
2022-09-22T23:10:08.848Z,1.90
2022-09-22T23:12:37.211Z,2.47
2022-09-22T23:15:05.046Z,2.40
2022-09-22T23:17:33.404Z,3.08
2022-09-22T23:20:01.175Z,2.72
2022-09-22T23:22:28.921Z,2.20
2022-09-22T23:24:56.583Z,2.30
2022-09-22T23:27:24.509Z,2.20
2022-09-22T23:29:52.400Z,2.45
2022-09-22T23:32:20.137Z,2.35
2022-09-22T23:37:22.143Z,2.72
2022-09-22T23:39:50.911Z,2.78
2022-09-22T23:42:18.603Z,2.03
2022-09-22T23:44:46.337Z,2.63
2022-09-22T23:47:16.177Z,2.65
2022-09-22T23:49:44.129Z,2.25
2022-09-22T23:52:11.861Z,2.58
2022-09-22T23:54:39.560Z,2.80
2022-09-22T23:57:07.241Z,1.90
2022-09-22T23:59:34.969Z,2.13
